Time;durP1;ratioP1;P1;durP2;ratioP2;P2;SDS_P1;SDS_P2;PMS_P1;PMS_P2;Temp;Humidity;BMP_temperature;BMP_pressure;BME280_temperature;BME280_humidity;BME280_pressure;Samples;Min_cycle;Max_cycle;Signal;HPM_P1;HPM_P2
2022/02/19 00:02:13;;;;;;;;;;;;;;;-1.61;87.53;100077.00;5091524;28;936;-58
2022/02/19 00:04:40;;;;;;;;;;;;;;;-1.45;87.50;100086.31;5092952;28;874;-59
2022/02/19 00:07:06;;;;;;;;;;;;;;;-1.35;87.44;100076.28;5095501;28;886;-58
2022/02/19 00:09:33;;;;;;;;;;;;;;;-1.31;87.53;100074.53;5095478;28;792;-58
2022/02/19 00:12:00;;;;;;;;;;;;;;;-1.28;87.98;100061.16;5095502;28;899;-58
2022/02/19 00:14:26;;;;;;;;;;;;;;;-1.08;88.64;100059.72;5095518;28;936;-58
2022/02/19 00:16:53;;;;;;;;;;;;;;;-0.75;89.66;100059.25;5095733;28;1087;-58
2022/02/19 00:19:19;;;;;;;;;;;;;;;-0.33;88.29;100058.72;5095445;28;2033;-58
2022/02/19 00:21:45;;;;;;;;;;;;;;;0.02;87.38;100053.19;5095395;28;811;-58
2022/02/19 00:24:12;;;;;;;;;;;;;;;0.13;86.39;100057.97;5095288;28;879;-59
2022/02/19 00:26:39;;;;;;;;;;;;;;;-0.08;84.85;100055.16;5095379;28;870;-58
2022/02/19 00:29:05;;;;;;;;;;;;;;;-0.55;85.25;100060.53;5095234;28;870;-58
2022/02/19 00:31:31;;;;;;;;;;;;;;;-0.82;85.92;100053.50;5095432;28;871;-58
2022/02/19 00:33:58;;;;;;;;;;;;;;;-0.89;86.32;100058.63;5076986;28;1327;-57
2022/02/19 00:36:25;;;;;;;;;;;;;;;-1.10;86.42;100059.25;5095173;28;850;-58
2022/02/19 00:38:51;;;;;;;;;;;;;;;-1.02;87.21;100057.66;5095261;28;857;-58
2022/02/19 00:41:18;;;;;;;;;;;;;;;-0.86;87.17;100052.56;5095070;28;1902;-59
2022/02/19 00:43:44;;;;;;;;;;;;;;;-0.82;86.81;100051.59;5094833;28;811;-58
2022/02/19 00:46:11;;;;;;;;;;;;;;;-0.72;86.85;100042.34;5094906;28;847;-59
2022/02/19 00:48:37;;;;;;;;;;;;;;;-0.68;86.44;100042.50;5094895;28;803;-58
2022/02/19 00:51:04;;;;;;;;;;;;;;;-0.68;86.07;100032.44;5094793;28;1258;-59
2022/02/19 00:53:31;;;;;;;;;;;;;;;-0.75;85.96;100023.16;5094604;28;926;-58
2022/02/19 00:55:57;;;;;;;;;;;;;;;-0.87;85.10;100021.91;5094838;28;858;-56
2022/02/19 00:58:23;;;;;;;;;;;;;;;-1.03;84.61;100028.94;5094828;28;803;-56
2022/02/19 01:00:50;;;;;;;;;;;;;;;-1.18;84.85;100030.19;5094759;28;1977;-56
2022/02/19 01:03:16;;;;;;;;;;;;;;;-1.39;84.29;100013.72;5094743;28;898;-56
2022/02/19 01:05:42;;;;;;;;;;;;;;;-1.59;84.62;100020.56;5095266;28;837;-57
2022/02/19 01:08:10;;;;;;;;;;;;;;;-1.71;85.06;100010.34;5094629;28;921;-56
2022/02/19 01:10:37;;;;;;;;;;;;;;;-1.73;86.13;100004.44;5094714;28;846;-57
2022/02/19 01:13:03;;;;;;;;;;;;;;;-1.57;85.78;100006.72;5094533;28;914;-56
2022/02/19 01:15:29;;;;;;;;;;;;;;;-1.58;85.24;100003.19;5094160;28;938;-58
2022/02/19 01:17:56;;;;;;;;;;;;;;;-1.57;84.75;100006.72;5076257;28;1460;-59
2022/02/19 01:20:23;;;;;;;;;;;;;;;-1.63;84.52;100006.03;5094131;28;1889;-58
2022/02/19 01:22:49;;;;;;;;;;;;;;;-1.74;84.94;100005.53;5094278;28;843;-59
2022/02/19 01:25:16;;;;;;;;;;;;;;;-1.70;85.14;100005.72;5094164;28;855;-58
2022/02/19 01:27:43;;;;;;;;;;;;;;;-1.74;84.62;100000.13;5093981;28;1664;-58
2022/02/19 01:30:09;;;;;;;;;;;;;;;-1.93;84.97;99996.88;5094099;28;795;-58
2022/02/19 01:32:36;;;;;;;;;;;;;;;-2.04;85.05;99998.28;5094044;28;815;-56
2022/02/19 01:35:02;;;;;;;;;;;;;;;-2.11;85.86;99996.81;5094019;28;862;-57
2022/02/19 01:37:29;;;;;;;;;;;;;;;-2.11;85.75;99993.31;5093782;28;874;-57
2022/02/19 01:39:55;;;;;;;;;;;;;;;-2.04;85.89;99992.88;5093715;28;1894;-56
2022/02/19 01:42:22;;;;;;;;;;;;;;;-2.00;86.52;99993.84;5093959;28;795;-56
2022/02/19 01:44:50;;;;;;;;;;;;;;;-1.84;86.02;99997.69;5093863;28;815;-57
2022/02/19 01:47:17;;;;;;;;;;;;;;;-1.72;85.62;99995.19;5075645;28;1676;-56
2022/02/19 01:49:43;;;;;;;;;;;;;;;-1.75;84.73;100000.44;5093626;28;1383;-56
2022/02/19 01:52:10;;;;;;;;;;;;;;;-1.82;85.33;100005.53;5093829;28;900;-56
2022/02/19 01:54:37;;;;;;;;;;;;;;;-2.00;85.36;100008.19;5093799;28;810;-56
2022/02/19 01:57:04;;;;;;;;;;;;;;;-2.14;85.35;100013.69;5093522;28;861;-56
2022/02/19 01:59:31;;;;;;;;;;;;;;;-2.20;85.59;100012.22;5109219;28;1973;-56
2022/02/19 02:01:58;;;;;;;;;;;;;;;-2.08;85.97;100009.72;5093617;28;842;-56
2022/02/19 02:04:25;;;;;;;;;;;;;;;-1.85;86.27;100015.09;5093355;28;839;-57
2022/02/19 02:06:51;;;;;;;;;;;;;;;-1.69;86.55;100010.81;5093247;28;860;-57
2022/02/19 02:09:18;;;;;;;;;;;;;;;-1.46;86.11;100008.00;5093273;28;881;-56
2022/02/19 02:11:45;;;;;;;;;;;;;;;-1.20;85.71;100002.59;5093377;28;807;-56
2022/02/19 02:14:12;;;;;;;;;;;;;;;-1.08;85.15;100005.47;5093310;28;795;-58
2022/02/19 02:16:40;;;;;;;;;;;;;;;-1.09;84.31;100012.03;5093499;28;927;-56
2022/02/19 02:19:08;;;;;;;;;;;;;;;-1.29;84.06;100012.63;5093175;28;893;-56
2022/02/19 02:21:35;;;;;;;;;;;;;;;-1.52;84.56;100003.84;5093186;28;1959;-56
2022/02/19 02:24:01;;;;;;;;;;;;;;;-1.41;85.29;100018.69;5093270;28;846;-56
2022/02/19 02:26:28;;;;;;;;;;;;;;;-1.17;84.91;100020.97;5074721;28;847;-56
2022/02/19 02:28:55;;;;;;;;;;;;;;;-1.04;84.69;100025.41;5092447;28;811;-58
2022/02/19 02:31:22;;;;;;;;;;;;;;;-1.03;84.39;100027.00;5092910;28;877;-57
2022/02/19 02:33:49;;;;;;;;;;;;;;;-0.96;84.72;100026.56;5092726;28;941;-56
2022/02/19 02:36:16;;;;;;;;;;;;;;;-0.89;85.63;100031.50;5092758;28;811;-56
2022/02/19 02:38:43;;;;;;;;;;;;;;;-0.80;86.65;100026.06;5092462;28;882;-56
2022/02/19 02:41:10;;;;;;;;;;;;;;;-0.72;87.06;100023.34;5092500;28;1956;-57
2022/02/19 02:43:37;;;;;;;;;;;;;;;-0.77;86.37;100017.25;5092476;28;839;-56
2022/02/19 02:46:03;;;;;;;;;;;;;;;-0.88;85.67;100028.44;5092502;28;811;-57
2022/02/19 02:48:30;;;;;;;;;;;;;;;-0.77;83.27;100030.84;5092557;28;878;-56
2022/02/19 02:50:57;;;;;;;;;;;;;;;-0.82;82.42;100029.09;5092203;28;1436;-56
2022/02/19 02:53:26;;;;;;;;;;;;;;;-0.86;81.07;100030.84;5092438;28;875;-56
2022/02/19 02:55:52;;;;;;;;;;;;;;;-0.90;80.62;100036.09;5092464;28;894;-56
2022/02/19 02:58:18;;;;;;;;;;;;;;;-0.90;80.33;100046.16;5092468;28;905;-57
2022/02/19 03:00:45;;;;;;;;;;;;;;;-0.85;79.90;100051.44;5092259;28;1980;-57
2022/02/19 03:03:12;;;;;;;;;;;;;;;-0.94;79.80;100056.06;5092393;28;830;-56
2022/02/19 03:05:38;;;;;;;;;;;;;;;-1.18;79.73;100062.75;5092208;28;822;-58
2022/02/19 03:08:05;;;;;;;;;;;;;;;-1.44;80.13;100063.50;5092377;28;903;-58
2022/02/19 03:10:31;;;;;;;;;;;;;;;-1.70;80.63;100063.44;5092179;28;881;-58
2022/02/19 03:12:58;;;;;;;;;;;;;;;-1.81;80.94;100058.59;5092058;28;799;-58
2022/02/19 03:15:24;;;;;;;;;;;;;;;-1.90;81.84;100053.97;5092145;28;1024;-58
2022/02/19 03:17:51;;;;;;;;;;;;;;;-1.92;81.78;100058.06;5092090;28;930;-58
2022/02/19 03:20:19;;;;;;;;;;;;;;;-2.01;81.58;100054.53;5073823;28;2253;-58
2022/02/19 03:22:46;;;;;;;;;;;;;;;-2.16;82.12;100053.03;5091988;28;864;-58
2022/02/19 03:25:12;;;;;;;;;;;;;;;-2.27;82.32;100057.91;5091927;28;870;-58
2022/02/19 03:27:39;;;;;;;;;;;;;;;-2.19;82.84;100050.94;5091979;28;838;-58
2022/02/19 03:30:06;;;;;;;;;;;;;;;-2.00;83.73;100051.53;5091655;28;890;-59
2022/02/19 03:32:33;;;;;;;;;;;;;;;-1.93;84.31;100053.78;5091936;28;811;-58
2022/02/19 03:34:59;;;;;;;;;;;;;;;-1.85;84.36;100055.72;5091774;28;866;-58
2022/02/19 03:37:26;;;;;;;;;;;;;;;-1.68;85.91;100061.19;5091876;28;873;-59
2022/02/19 03:39:53;;;;;;;;;;;;;;;-1.54;86.12;100058.34;5090480;28;1894;-58
2022/02/19 03:42:19;;;;;;;;;;;;;;;-1.47;86.98;100056.00;5091612;28;843;-58
2022/02/19 03:44:46;;;;;;;;;;;;;;;-1.34;86.94;100067.84;5091762;28;862;-58
2022/02/19 03:47:12;;;;;;;;;;;;;;;-1.16;87.27;100076.78;5091558;28;874;-58
2022/02/19 03:49:39;;;;;;;;;;;;;;;-1.07;87.33;100077.63;5091533;28;1271;-58
2022/02/19 03:52:05;;;;;;;;;;;;;;;-1.08;86.88;100078.72;5091939;28;870;-58
2022/02/19 03:54:32;;;;;;;;;;;;;;;-1.17;86.21;100072.50;5091659;28;795;-58
2022/02/19 03:56:58;;;;;;;;;;;;;;;-1.25;86.19;100065.13;5091490;28;882;-58
2022/02/19 03:59:25;;;;;;;;;;;;;;;-1.33;85.82;100077.56;5091448;28;1918;-58
2022/02/19 04:01:52;;;;;;;;;;;;;;;-1.43;85.76;100075.13;5091489;28;870;-58
2022/02/19 04:04:18;;;;;;;;;;;;;;;-1.55;85.07;100083.88;5091504;28;834;-58
2022/02/19 04:06:44;;;;;;;;;;;;;;;-1.72;84.95;100100.88;5091419;28;814;-58
2022/02/19 04:09:10;;;;;;;;;;;;;;;-1.85;85.42;100085.53;5091601;28;877;-58
2022/02/19 04:11:37;;;;;;;;;;;;;;;-1.93;85.00;100081.66;5091379;28;866;-58
2022/02/19 04:14:03;;;;;;;;;;;;;;;-2.07;85.07;100081.75;5091288;28;873;-58
2022/02/19 04:16:30;;;;;;;;;;;;;;;-2.06;85.34;100083.34;5091544;28;962;-58
2022/02/19 04:18:57;;;;;;;;;;;;;;;-1.90;86.32;100086.47;5091119;28;961;-58
2022/02/19 04:21:23;;;;;;;;;;;;;;;-1.82;85.92;100087.59;5091340;28;1890;-58
2022/02/19 04:23:49;;;;;;;;;;;;;;;-1.84;85.86;100089.81;5091545;28;846;-58
2022/02/19 04:26:16;;;;;;;;;;;;;;;-1.83;85.42;100077.91;5091945;28;839;-58
2022/02/19 04:28:42;;;;;;;;;;;;;;;-1.79;85.76;100078.88;5091543;28;827;-58
2022/02/19 04:31:08;;;;;;;;;;;;;;;-1.79;85.43;100069.91;5091671;28;866;-58
2022/02/19 04:33:35;;;;;;;;;;;;;;;-1.68;85.98;100055.78;5091442;28;851;-58
2022/02/19 04:36:01;;;;;;;;;;;;;;;-1.50;86.27;100058.53;5091189;28;882;-58
2022/02/19 04:38:28;;;;;;;;;;;;;;;-1.65;85.64;100063.28;5091183;28;874;-58
2022/02/19 04:40:55;;;;;;;;;;;;;;;-1.95;85.22;100077.66;5090970;28;1952;-58
2022/02/19 04:43:21;;;;;;;;;;;;;;;-2.18;85.58;100085.03;5091055;28;868;-58
2022/02/19 04:45:48;;;;;;;;;;;;;;;-2.16;85.89;100094.44;5091089;28;818;-58
2022/02/19 04:48:13;;;;;;;;;;;;;;;-2.03;86.14;100091.97;5091164;28;866;-58
2022/02/19 04:50:40;;;;;;;;;;;;;;;-2.06;86.55;100083.34;5092007;28;1240;-58
2022/02/19 04:53:07;;;;;;;;;;;;;;;-2.06;87.00;100090.69;5094708;28;883;-58
2022/02/19 04:55:34;;;;;;;;;;;;;;;-2.07;87.11;100094.50;5094701;28;1067;-58
2022/02/19 04:58:01;;;;;;;;;;;;;;;-2.06;87.18;100105.03;5094779;28;889;-57
2022/02/19 05:00:27;;;;;;;;;;;;;;;-2.04;87.12;100103.94;5094650;28;1909;-58
2022/02/19 05:02:53;;;;;;;;;;;;;;;-1.94;86.80;100104.47;5094540;28;831;-58
2022/02/19 05:05:20;;;;;;;;;;;;;;;-1.92;86.32;100107.66;5094601;28;836;-57
2022/02/19 05:07:46;;;;;;;;;;;;;;;-1.87;85.77;100109.44;5094422;28;1267;-58
2022/02/19 05:10:13;;;;;;;;;;;;;;;-1.83;85.25;100109.59;5094541;28;811;-58
2022/02/19 05:12:43;;;;;;;;;;;;;;;-1.80;85.11;100117.09;5076249;28;812;-58
2022/02/19 05:15:13;;;;;;;;;;;;;;;-1.86;84.43;100111.00;5094251;28;1045;-57
2022/02/19 05:17:48;;;;;;;;;;;;;;;-1.99;84.39;100123.53;5094368;28;867;-58
2022/02/19 05:20:15;;;;;;;;;;;;;;;-2.17;84.71;100125.34;5094133;28;1941;-57
2022/02/19 05:22:41;;;;;;;;;;;;;;;-2.20;85.10;100130.59;5110039;28;928;-58
2022/02/19 05:25:08;;;;;;;;;;;;;;;-2.13;85.60;100134.47;5094316;28;875;-58
2022/02/19 05:27:35;;;;;;;;;;;;;;;-2.02;85.34;100136.91;5094078;28;921;-58
2022/02/19 05:30:01;;;;;;;;;;;;;;;-1.85;85.37;100137.00;5076056;28;913;-58
2022/02/19 05:32:28;;;;;;;;;;;;;;;-1.67;84.84;100138.69;5093995;28;842;-58
2022/02/19 05:34:54;;;;;;;;;;;;;;;-1.59;84.53;100144.47;5094057;28;916;-58
2022/02/19 05:37:21;;;;;;;;;;;;;;;-1.53;84.42;100138.59;5094028;28;961;-58
2022/02/19 05:39:48;;;;;;;;;;;;;;;-1.49;83.82;100146.91;5094229;28;1889;-58
2022/02/19 05:42:14;;;;;;;;;;;;;;;-1.28;84.45;100149.81;5094055;28;819;-58
2022/02/19 05:44:40;;;;;;;;;;;;;;;-0.73;84.10;100156.66;5093877;28;882;-58
2022/02/19 05:47:07;;;;;;;;;;;;;;;-0.02;82.94;100161.78;5094154;28;775;-57
2022/02/19 05:49:34;;;;;;;;;;;;;;;0.75;81.02;100156.41;5093731;28;1275;-57
2022/02/19 05:52:00;;;;;;;;;;;;;;;1.34;78.66;100156.34;5093852;28;827;-58
2022/02/19 05:54:27;;;;;;;;;;;;;;;1.81;76.05;100172.50;5094222;28;818;-57
2022/02/19 05:56:53;;;;;;;;;;;;;;;1.91;72.46;100162.28;5093655;28;867;-58
2022/02/19 05:59:19;;;;;;;;;;;;;;;1.74;72.15;100168.69;5093632;28;846;-58
2022/02/19 06:01:46;;;;;;;;;;;;;;;1.46;71.98;100166.53;5092512;28;1910;-58
2022/02/19 06:04:12;;;;;;;;;;;;;;;1.28;72.00;100163.13;5093414;28;854;-58
2022/02/19 06:06:39;;;;;;;;;;;;;;;1.36;72.41;100164.97;5093292;28;830;-58
2022/02/19 06:09:06;;;;;;;;;;;;;;;1.46;70.85;100165.72;5093399;28;792;-58
2022/02/19 06:11:32;;;;;;;;;;;;;;;1.71;70.63;100161.19;5093175;28;874;-57
2022/02/19 06:13:58;;;;;;;;;;;;;;;2.04;69.26;100163.94;5109003;28;980;-58
2022/02/19 06:16:24;;;;;;;;;;;;;;;2.31;67.83;100164.47;5093260;28;1011;-58
2022/02/19 06:18:50;;;;;;;;;;;;;;;2.35;67.31;100163.44;5093234;28;818;-58
2022/02/19 06:21:17;;;;;;;;;;;;;;;2.37;66.85;100166.63;5093014;28;1885;-58
2022/02/19 06:23:43;;;;;;;;;;;;;;;2.57;66.38;100156.75;5093140;28;838;-58
2022/02/19 06:26:09;;;;;;;;;;;;;;;3.03;66.16;100160.19;5093031;28;811;-58
2022/02/19 06:28:36;;;;;;;;;;;;;;;3.46;64.41;100158.75;5093150;28;878;-58
2022/02/19 06:31:02;;;;;;;;;;;;;;;3.56;63.67;100162.91;5092847;28;1169;-58
2022/02/19 06:33:29;;;;;;;;;;;;;;;3.62;64.77;100167.00;5092918;28;815;-58
2022/02/19 06:35:56;;;;;;;;;;;;;;;3.84;64.29;100167.59;5093013;28;830;-58
2022/02/19 06:38:23;;;;;;;;;;;;;;;4.04;64.22;100171.31;5092655;28;849;-58
2022/02/19 06:40:49;;;;;;;;;;;;;;;4.34;62.71;100171.69;5092702;28;1890;-58
2022/02/19 06:43:15;;;;;;;;;;;;;;;5.04;61.47;100168.34;5092734;28;1012;-58
2022/02/19 06:45:42;;;;;;;;;;;;;;;5.47;59.73;100163.03;5092565;28;800;-58
2022/02/19 06:48:08;;;;;;;;;;;;;;;5.76;59.06;100158.13;5108325;28;850;-58
2022/02/19 06:50:35;;;;;;;;;;;;;;;5.96;58.87;100158.94;5092441;28;1397;-59
2022/02/19 06:53:02;;;;;;;;;;;;;;;6.08;58.25;100165.06;5092688;28;909;-58
2022/02/19 06:55:28;;;;;;;;;;;;;;;6.24;57.48;100155.94;5092366;28;795;-58
2022/02/19 06:57:55;;;;;;;;;;;;;;;6.72;57.73;100159.91;5108347;28;873;-58
2022/02/19 07:00:21;;;;;;;;;;;;;;;7.33;56.30;100157.28;5092187;28;1910;-58
2022/02/19 07:02:47;;;;;;;;;;;;;;;7.46;54.68;100157.84;5092350;28;882;-58
2022/02/19 07:05:14;;;;;;;;;;;;;;;7.23;54.06;100157.91;5092152;28;950;-58
2022/02/19 07:07:40;;;;;;;;;;;;;;;6.78;55.28;100157.63;5092362;28;839;-58
2022/02/19 07:10:09;;;;;;;;;;;;;;;6.87;56.00;100160.13;5092125;28;843;-58
2022/02/19 07:12:37;;;;;;;;;;;;;;;6.91;55.68;100161.78;5091934;28;941;-56
2022/02/19 07:15:07;;;;;;;;;;;;;;;7.26;55.95;100159.94;5091902;28;965;-58
2022/02/19 07:17:44;;;;;;;;;;;;;;;7.33;54.61;100155.31;5092039;28;886;-58
2022/02/19 07:20:11;;;;;;;;;;;;;;;7.22;54.55;100148.88;5091899;28;1945;-58
2022/02/19 07:22:38;;;;;;;;;;;;;;;6.88;55.76;100156.22;5091962;28;807;-58
2022/02/19 07:25:05;;;;;;;;;;;;;;;6.72;55.63;100151.69;5092344;28;857;-58
2022/02/19 07:27:42;;;;;;;;;;;;;;;6.88;55.14;100145.25;5091868;28;862;-58
2022/02/19 07:30:13;;;;;;;;;;;;;;;7.00;52.29;100134.06;5073640;28;1341;-58
2022/02/19 07:32:39;;;;;;;;;;;;;;;6.91;52.67;100139.81;5091809;28;866;-58
2022/02/19 07:35:08;;;;;;;;;;;;;;;7.00;53.13;100153.28;5091848;28;826;-58
2022/02/19 07:37:35;;;;;;;;;;;;;;;7.33;53.91;100136.06;5091767;28;933;-58
2022/02/19 07:40:02;;;;;;;;;;;;;;;7.55;53.84;100139.91;5091545;28;1925;-58
2022/02/19 07:42:29;;;;;;;;;;;;;;;7.89;53.36;100145.41;5091749;28;902;-58
2022/02/19 07:44:56;;;;;;;;;;;;;;;8.03;50.46;100142.03;5091778;28;803;-58
2022/02/19 07:47:27;;;;;;;;;;;;;;;8.02;51.28;100150.66;5091707;28;879;-58
2022/02/19 07:58:18;;;;;;;;;;;;;;;8.17;49.86;100152.38;5091961;28;708;-58
2022/02/19 08:00:46;;;;;;;;;;;;;;;8.26;50.43;100154.88;5091360;28;1966;-58
2022/02/19 08:03:13;;;;;;;;;;;;;;;8.39;49.29;100147.91;5091419;28;937;-58
2022/02/19 08:05:39;;;;;;;;;;;;;;;8.54;50.24;100152.41;5091381;28;901;-58
2022/02/19 08:08:06;;;;;;;;;;;;;;;8.73;49.63;100156.91;5091368;28;858;-58
2022/02/19 08:10:33;;;;;;;;;;;;;;;8.87;48.67;100147.94;5091486;28;807;-58
2022/02/19 08:12:59;;;;;;;;;;;;;;;8.93;48.44;100146.41;5091394;28;937;-58
2022/02/19 08:15:25;;;;;;;;;;;;;;;8.94;49.14;100147.19;5091398;28;1452;-57
2022/02/19 08:17:51;;;;;;;;;;;;;;;9.25;47.80;100153.31;5091398;28;811;-58
2022/02/19 08:20:18;;;;;;;;;;;;;;;9.69;47.92;100144.09;5091228;28;1874;-58
2022/02/19 08:22:44;;;;;;;;;;;;;;;10.04;45.13;100143.41;5091347;28;848;-58
2022/02/19 08:25:10;;;;;;;;;;;;;;;10.08;45.63;100138.69;5091747;28;788;-59
2022/02/19 08:27:39;;;;;;;;;;;;;;;10.31;44.65;100140.34;5095239;28;889;-58
2022/02/19 08:30:06;;;;;;;;;;;;;;;10.36;43.17;100140.75;5095023;28;1060;-58
2022/02/19 08:32:33;;;;;;;;;;;;;;;10.09;45.14;100140.28;5095102;28;918;-58
2022/02/19 08:35:00;;;;;;;;;;;;;;;10.03;44.73;100130.78;5095014;28;918;-58
2022/02/19 08:37:27;;;;;;;;;;;;;;;10.04;45.76;100131.56;5095104;28;895;-58
2022/02/19 08:39:53;;;;;;;;;;;;;;;10.18;43.51;100132.41;5076851;28;1945;-58
2022/02/19 08:42:20;;;;;;;;;;;;;;;9.92;43.53;100133.53;5095002;28;886;-59
2022/02/19 08:44:47;;;;;;;;;;;;;;;9.86;44.36;100131.50;5094909;28;918;-58
2022/02/19 08:47:13;;;;;;;;;;;;;;;9.87;44.37;100133.09;5094971;28;873;-58
2022/02/19 08:49:43;;;;;;;;;;;;;;;9.80;44.22;100126.38;5094739;28;1277;-58
2022/02/19 08:52:12;;;;;;;;;;;;;;;9.74;43.14;100124.38;5094870;28;937;-58
2022/02/19 08:54:38;;;;;;;;;;;;;;;9.85;44.17;100130.72;5094816;28;889;-58
2022/02/19 08:57:04;;;;;;;;;;;;;;;9.76;44.89;100133.84;5094878;28;819;-58
2022/02/19 08:59:30;;;;;;;;;;;;;;;9.71;45.77;100141.75;5094519;28;894;-58
2022/02/19 09:01:58;;;;;;;;;;;;;;;9.84;44.54;100139.41;5076411;28;2056;-58
2022/02/19 09:04:25;;;;;;;;;;;;;;;10.03;44.21;100141.84;5094489;28;926;-58
2022/02/19 09:06:51;;;;;;;;;;;;;;;10.02;44.49;100143.00;5094595;28;854;-58
2022/02/19 09:09:18;;;;;;;;;;;;;;;10.10;44.49;100150.13;5094553;28;834;-58
2022/02/19 09:11:45;;;;;;;;;;;;;;;10.18;43.84;100143.44;5094418;28;851;-59
2022/02/19 09:14:11;;;;;;;;;;;;;;;10.29;43.63;100137.97;5094321;28;933;-58
2022/02/19 09:16:38;;;;;;;;;;;;;;;10.27;44.47;100137.53;5094794;28;948;-59
2022/02/19 09:19:05;;;;;;;;;;;;;;;10.16;44.20;100133.97;5094321;28;929;-59
2022/02/19 09:21:33;;;;;;;;;;;;;;;10.21;43.84;100139.09;5076028;28;1914;-59
2022/02/19 09:24:01;;;;;;;;;;;;;;;10.16;44.73;100136.75;5094152;28;806;-58
2022/02/19 09:26:28;;;;;;;;;;;;;;;10.32;46.12;100128.88;5094447;28;804;-58
2022/02/19 09:28:54;;;;;;;;;;;;;;;10.48;43.03;100127.75;5094098;28;838;-58
2022/02/19 09:31:22;;;;;;;;;;;;;;;10.50;43.34;100117.09;5094283;28;915;-58
2022/02/19 09:33:49;;;;;;;;;;;;;;;10.52;42.13;100123.78;5093766;28;938;-58
2022/02/19 09:36:16;;;;;;;;;;;;;;;10.73;44.35;100116.66;5094060;28;823;-59
2022/02/19 09:38:42;;;;;;;;;;;;;;;10.99;42.96;100109.94;5093880;28;908;-58
2022/02/19 09:41:16;;;;;;;;;;;;;;;11.36;42.91;100092.84;5093827;28;1967;-59
2022/02/19 09:43:43;;;;;;;;;;;;;;;11.68;39.54;100082.81;5094355;28;925;-59
2022/02/19 09:46:12;;;;;;;;;;;;;;;11.74;39.88;100087.53;5075901;28;1184;-58
2022/02/19 09:48:42;;;;;;;;;;;;;;;11.74;39.78;100082.00;5093902;28;890;-58
2022/02/19 09:51:10;;;;;;;;;;;;;;;11.75;42.14;100085.56;5093457;28;1263;-59
2022/02/19 09:53:37;;;;;;;;;;;;;;;12.10;38.92;100075.47;5093656;28;823;-58
2022/02/19 09:56:05;;;;;;;;;;;;;;;12.34;38.12;100074.50;5093731;28;839;-58
2022/02/19 09:58:33;;;;;;;;;;;;;;;12.41;38.10;100076.44;5093400;28;921;-58
2022/02/19 10:01:17;;;;;;;;;;;;;;;12.48;37.93;100058.97;5093039;28;1905;-58
2022/02/19 10:03:47;;;;;;;;;;;;;;;12.42;38.36;100050.31;5093641;28;811;-59
2022/02/19 10:06:15;;;;;;;;;;;;;;;12.70;38.09;100070.66;5093730;28;934;-59
2022/02/19 10:08:42;;;;;;;;;;;;;;;12.90;38.97;100070.84;5093608;28;867;-59
2022/02/19 10:11:12;;;;;;;;;;;;;;;13.04;36.54;100052.06;5093301;28;932;-58
2022/02/19 10:13:40;;;;;;;;;;;;;;;13.21;36.04;100057.84;5093345;28;801;-58
2022/02/19 10:16:08;;;;;;;;;;;;;;;13.53;36.46;100059.44;5075237;28;1239;-59
2022/02/19 10:18:35;;;;;;;;;;;;;;;13.78;35.51;100048.78;5075131;28;863;-59
2022/02/19 10:21:17;;;;;;;;;;;;;;;13.57;33.42;100051.84;5093348;28;1893;-59
2022/02/19 10:23:44;;;;;;;;;;;;;;;13.58;33.76;100054.22;5093143;28;999;-58
2022/02/19 10:26:11;;;;;;;;;;;;;;;13.53;33.82;100038.03;5108903;28;803;-59
2022/02/19 10:28:38;;;;;;;;;;;;;;;13.37;34.36;100051.72;5092956;28;875;-59
2022/02/19 10:31:17;;;;;;;;;;;;;;;13.51;32.91;100040.44;5092933;28;870;-59
2022/02/19 10:33:44;;;;;;;;;;;;;;;13.63;34.91;100042.66;5093047;28;882;-59
2022/02/19 10:36:16;;;;;;;;;;;;;;;13.57;33.23;100041.56;5092661;28;851;-59
2022/02/19 10:38:56;;;;;;;;;;;;;;;13.67;33.11;100031.50;5093070;28;886;-59
2022/02/19 10:41:32;;;;;;;;;;;;;;;13.67;33.13;100034.28;5092523;28;1894;-59
2022/02/19 10:44:01;;;;;;;;;;;;;;;13.80;33.27;100023.38;5092566;28;929;-59
2022/02/19 10:46:27;;;;;;;;;;;;;;;13.89;33.19;100012.53;5092744;28;866;-58
2022/02/19 10:49:08;;;;;;;;;;;;;;;13.88;33.11;100024.84;5092328;28;886;-59
2022/02/19 10:51:35;;;;;;;;;;;;;;;13.80;32.95;100001.94;5072387;28;851;-59
2022/02/19 10:54:08;;;;;;;;;;;;;;;14.03;34.07;100011.53;5072143;28;847;-59
2022/02/19 10:56:35;;;;;;;;;;;;;;;14.25;33.07;100003.63;5072194;28;854;-59
2022/02/19 10:59:05;;;;;;;;;;;;;;;14.29;33.10;100001.56;5072217;28;894;-59
2022/02/19 11:01:42;;;;;;;;;;;;;;;14.38;33.81;100015.72;5072036;28;1980;-59
2022/02/19 11:04:09;;;;;;;;;;;;;;;14.46;33.68;100013.59;5072133;28;928;-59
2022/02/19 11:06:36;;;;;;;;;;;;;;;14.40;32.30;100002.19;5071983;28;882;-59
2022/02/19 11:09:05;;;;;;;;;;;;;;;14.38;32.32;99996.25;5072064;28;842;-59
2022/02/19 11:11:34;;;;;;;;;;;;;;;14.39;33.92;99997.03;5071884;28;903;-59
2022/02/19 11:14:02;;;;;;;;;;;;;;;14.46;33.30;99994.91;5072110;28;933;-59
2022/02/19 11:16:30;;;;;;;;;;;;;;;14.64;32.96;99989.06;5072303;28;951;-59
2022/02/19 11:18:58;;;;;;;;;;;;;;;14.69;34.46;99991.34;5071720;28;929;-59
2022/02/19 11:21:25;;;;;;;;;;;;;;;14.82;33.80;99996.28;5053786;28;1925;-59
2022/02/19 11:23:52;;;;;;;;;;;;;;;15.09;32.46;99985.03;5071666;28;891;-60
2022/02/19 11:26:21;;;;;;;;;;;;;;;14.92;33.06;99980.59;5071594;28;888;-60
2022/02/19 11:28:49;;;;;;;;;;;;;;;14.98;31.58;99964.94;5071791;28;783;-60
2022/02/19 11:31:16;;;;;;;;;;;;;;;14.96;32.99;99973.75;5071803;28;830;-61
2022/02/19 11:33:45;;;;;;;;;;;;;;;14.98;31.30;99960.19;5071566;28;918;-60
2022/02/19 11:36:11;;;;;;;;;;;;;;;14.92;31.53;99969.47;5071746;28;866;-60
2022/02/19 11:38:48;;;;;;;;;;;;;;;14.73;32.36;99960.69;5071619;28;811;-60
2022/02/19 11:41:29;;;;;;;;;;;;;;;14.70;31.53;99948.41;5071467;28;1949;-60
2022/02/19 11:43:55;;;;;;;;;;;;;;;14.62;31.77;99940.63;5071580;28;835;-60
2022/02/19 11:46:25;;;;;;;;;;;;;;;14.90;33.24;99934.50;5071475;28;835;-60
2022/02/19 11:48:51;;;;;;;;;;;;;;;15.35;33.18;99938.72;5071472;28;835;-60
2022/02/19 11:51:19;;;;;;;;;;;;;;;15.53;32.46;99932.72;5090514;28;1385;-60
2022/02/19 11:53:50;;;;;;;;;;;;;;;15.48;31.38;99917.31;5091536;28;917;-60
2022/02/19 11:56:46;;;;;;;;;;;;;;;15.49;31.18;99937.59;5091367;28;914;-60
2022/02/19 11:59:16;;;;;;;;;;;;;;;15.26;31.54;99930.94;5078168;28;1369;-60
2022/02/19 12:01:45;;;;;;;;;;;;;;;15.28;31.36;99928.53;5090782;28;1910;-60
2022/02/19 12:04:16;;;;;;;;;;;;;;;15.52;31.62;99926.38;5091726;28;862;-60
2022/02/19 12:06:46;;;;;;;;;;;;;;;15.43;32.06;99919.84;5091658;28;783;-60
2022/02/19 12:09:13;;;;;;;;;;;;;;;15.54;31.47;99920.38;5091425;28;934;-59
2022/02/19 12:11:58;;;;;;;;;;;;;;;15.67;32.64;99923.25;5091716;28;1042;-60
2022/02/19 12:14:46;;;;;;;;;;;;;;;15.64;31.47;99911.00;5091703;28;961;-60
2022/02/19 12:17:15;;;;;;;;;;;;;;;15.80;30.65;99901.88;5091817;28;998;-60
2022/02/19 12:20:00;;;;;;;;;;;;;;;15.64;31.25;99916.56;5091232;28;1881;-60
2022/02/19 12:22:32;;;;;;;;;;;;;;;15.57;31.00;99900.00;5091324;28;908;-60
2022/02/19 12:24:59;;;;;;;;;;;;;;;15.43;31.38;99912.28;5091043;28;850;-59
2022/02/19 12:27:26;;;;;;;;;;;;;;;15.48;31.34;99899.84;5091208;28;897;-60
2022/02/19 12:30:12;;;;;;;;;;;;;;;15.47;31.87;99893.47;5091284;28;838;-59
2022/02/19 12:32:46;;;;;;;;;;;;;;;15.48;31.60;99903.38;5091289;28;1292;-60
2022/02/19 12:35:13;;;;;;;;;;;;;;;15.51;31.33;99896.16;5091551;28;878;-60
2022/02/19 12:37:41;;;;;;;;;;;;;;;15.59;31.81;99896.78;5091784;28;751;-59
2022/02/19 12:40:07;;;;;;;;;;;;;;;15.85;31.45;99881.84;5091333;28;1890;-59
2022/02/19 12:42:34;;;;;;;;;;;;;;;15.90;31.69;99883.31;5091498;28;825;-60
2022/02/19 12:45:00;;;;;;;;;;;;;;;15.85;30.82;99869.91;5091716;28;817;-60
2022/02/19 12:47:27;;;;;;;;;;;;;;;15.81;31.56;99863.63;5091470;28;1271;-59
2022/02/19 12:49:54;;;;;;;;;;;;;;;15.78;31.84;99868.06;5090997;28;1453;-60
2022/02/19 12:52:24;;;;;;;;;;;;;;;16.03;30.99;99867.44;5091489;28;1247;-59
2022/02/19 12:54:50;;;;;;;;;;;;;;;16.00;31.34;99873.91;5090984;28;1025;-60
2022/02/19 12:57:21;;;;;;;;;;;;;;;16.19;31.20;99857.47;5091485;28;881;-60
2022/02/19 12:59:50;;;;;;;;;;;;;;;16.29;31.75;99850.81;5091031;28;1910;-60
2022/02/19 13:02:18;;;;;;;;;;;;;;;16.33;31.83;99848.72;5091240;28;887;-61
2022/02/19 13:04:45;;;;;;;;;;;;;;;16.21;31.13;99850.22;5091259;28;829;-58
2022/02/19 13:07:17;;;;;;;;;;;;;;;16.08;31.37;99847.38;5091124;28;849;-60
2022/02/19 13:09:47;;;;;;;;;;;;;;;16.08;31.38;99844.59;5106968;28;923;-60